createdAt,value
2022-12-24T09:59:49.149Z,12.00
2022-12-24T10:02:21.468Z,12.70
2022-12-24T10:04:50.834Z,13.00
2022-12-24T10:07:31.302Z,13.30
2022-12-24T10:10:08.519Z,13.50
2022-12-24T10:12:49.541Z,13.50
2022-12-24T10:15:26.332Z,13.30
2022-12-24T10:18:08.910Z,13.20
2022-12-24T10:20:45.579Z,13.00
2022-12-24T10:23:21.786Z,13.00
2022-12-24T10:25:57.441Z,12.90
2022-12-24T10:28:33.500Z,12.90
2022-12-24T10:31:08.292Z,12.80
2022-12-24T10:33:42.530Z,12.80
2022-12-24T10:36:17.828Z,12.70
2022-12-24T10:38:47.188Z,12.60
2022-12-24T10:41:17.344Z,12.50
2022-12-24T10:43:47.892Z,12.60
2022-12-24T10:46:22.402Z,12.50
2022-12-24T10:48:55.672Z,12.50
2022-12-24T10:51:34.277Z,12.40
2022-12-24T10:54:08.153Z,12.40
2022-12-24T10:56:43.498Z,12.30
2022-12-24T10:59:24.816Z,12.30
2022-12-24T11:01:55.884Z,12.40
2022-12-24T12:18:17.104Z,13.10
2022-12-24T12:20:48.911Z,13.80
2022-12-24T12:23:21.978Z,14.80
2022-12-24T12:25:55.959Z,15.90
2022-12-24T12:28:27.614Z,16.30
2022-12-24T12:31:03.225Z,16.70
2022-12-24T12:33:40.132Z,16.80
2022-12-24T12:36:11.401Z,17.40
2022-12-24T12:38:41.241Z,16.80
2022-12-24T12:41:23.288Z,16.70
2022-12-24T12:44:30.621Z,16.40
2022-12-24T12:47:32.991Z,15.90
2022-12-24T12:50:10.861Z,15.40
2022-12-24T12:53:04.794Z,15.20
2022-12-24T12:55:44.237Z,15.30
2022-12-24T12:58:18.132Z,15.40
2022-12-24T13:00:50.797Z,15.50
2022-12-24T13:04:02.582Z,15.50
2022-12-24T13:06:49.098Z,15.40
2022-12-24T13:09:53.291Z,15.20
2022-12-24T13:12:54.872Z,15.10
2022-12-24T13:15:43.321Z,15.00
2022-12-24T13:18:39.271Z,14.80
2022-12-24T13:21:17.917Z,14.60
2022-12-24T13:23:48.763Z,14.30
2022-12-24T13:26:18.739Z,14.10
2022-12-24T13:28:47.391Z,14.00
2022-12-24T13:31:31.030Z,13.90
2022-12-24T13:34:02.225Z,13.90
2022-12-24T13:37:21.345Z,13.70
2022-12-24T13:40:18.562Z,13.50
2022-12-24T13:43:12.606Z,13.40
2022-12-24T13:45:47.000Z,13.40
2022-12-24T13:48:31.264Z,13.30
2022-12-24T13:51:02.982Z,13.20
2022-12-24T13:53:35.198Z,13.20
2022-12-24T13:56:10.438Z,13.20
2022-12-24T13:58:42.861Z,13.10
2022-12-24T14:01:14.646Z,13.20
2022-12-24T14:03:45.328Z,13.10
2022-12-24T14:06:23.369Z,13.00
2022-12-24T14:08:54.888Z,13.20
2022-12-24T14:11:27.617Z,13.10
2022-12-24T14:14:28.889Z,13.10
2022-12-24T14:17:01.404Z,13.00
2022-12-24T14:19:37.533Z,13.00
2022-12-24T14:22:20.922Z,12.80
2022-12-24T14:24:56.154Z,12.80
2022-12-24T14:27:34.956Z,12.70
2022-12-24T14:30:06.997Z,12.60
2022-12-24T14:32:37.406Z,12.50
2022-12-24T14:35:16.243Z,12.40
